RYR812 EGKK-EIDW
Flight info
| Callsign | RYR812 |
|---|---|
| Flight time | N/A |
| Altitude | 32000 |
| Route | NOVMA L620 NIBDA N14 BIBPE DCT MEDOG DCT LANON L18 ABLIN ABLIN4L |
| Aircraft | B738/M-SDE2E3FGHIRWXY/LB1 |
Departure
| Time | 2026-04-17 13:11 |
|---|---|
| Airport | London Gatwick Airport (EGKK) |
Arrival
| Time | N/A |
|---|---|
| Airport | Dublin Airport (EIDW) |
| Time | Latitude | Longitude | Altitude | Speed | Heading |
|---|---|---|---|---|---|
| 2026-04-17 12:42 | 51.15511 | -0.16712 | 204 ft | 0 kts | 347° |
| 2026-04-17 13:04 | 51.15508 | -0.16711 | 204 ft | 4 kts | 347° |
| 2026-04-17 13:04 | 51.15482 | -0.16701 | 210 ft | 4 kts | 345° |
| 2026-04-17 13:04 | 51.15472 | -0.16697 | 207 ft | 4 kts | 342° |
| 2026-04-17 13:04 | 51.15456 | -0.16687 | 217 ft | 2 kts | 324° |
| 2026-04-17 13:05 | 51.15448 | -0.16674 | 217 ft | 2 kts | 287° |
| 2026-04-17 13:05 | 51.15447 | -0.16662 | 215 ft | 2 kts | 268° |
| 2026-04-17 13:05 | 51.15448 | -0.16644 | 215 ft | 2 kts | 259° |
| 2026-04-17 13:05 | 51.15450 | -0.16627 | 213 ft | 2 kts | 256° |
| 2026-04-17 13:06 | 51.15451 | -0.16621 | 211 ft | 0 kts | 256° |
| 2026-04-17 13:06 | 51.15450 | -0.16627 | 213 ft | 0 kts | 256° |
| 2026-04-17 13:07 | 51.15450 | -0.16629 | 204 ft | 2 kts | 256° |
| 2026-04-17 13:08 | 51.15442 | -0.16671 | 213 ft | 6 kts | 247° |
| 2026-04-17 13:08 | 51.15389 | -0.16701 | 204 ft | 11 kts | 175° |
| 2026-04-17 13:08 | 51.15296 | -0.16663 | 211 ft | 16 kts | 167° |
| 2026-04-17 13:08 | 51.15170 | -0.16631 | 203 ft | 20 kts | 191° |
| 2026-04-17 13:09 | 51.15125 | -0.16735 | 204 ft | 0 kts | 259° |
| 2026-04-17 13:09 | 51.15125 | -0.16736 | 204 ft | 0 kts | 259° |
| 2026-04-17 13:10 | 51.15109 | -0.16865 | 205 ft | 43 kts | 258° |
| 2026-04-17 13:11 | 51.14973 | -0.17762 | 211 ft | 122 kts | 259° |
| 2026-04-17 13:11 | 51.14760 | -0.19437 | 305 ft | 180 kts | 257° |
| 2026-04-17 13:11 | 51.14497 | -0.21485 | 1095 ft | 195 kts | 254° |
| 2026-04-17 13:11 | 51.14190 | -0.23684 | 1846 ft | 212 kts | 255° |
| 2026-04-17 13:12 | 51.13861 | -0.26036 | 2523 ft | 220 kts | 255° |
| 2026-04-17 13:12 | 51.13206 | -0.30868 | 3786 ft | 219 kts | 256° |
| 2026-04-17 13:12 | 51.12934 | -0.33125 | 4904 ft | 195 kts | 257° |
| 2026-04-17 13:13 | 51.12695 | -0.35162 | 5653 ft | 191 kts | 256° |
| 2026-04-17 13:13 | 51.12367 | -0.37463 | 5471 ft | 226 kts | 256° |
| 2026-04-17 13:13 | 51.12046 | -0.39898 | 6068 ft | 224 kts | 257° |
| 2026-04-17 13:13 | 51.11707 | -0.42299 | 6677 ft | 222 kts | 252° |
| 2026-04-17 13:14 | 51.11066 | -0.44652 | 6747 ft | 242 kts | 242° |
| 2026-04-17 13:14 | 51.10244 | -0.47125 | 6762 ft | 262 kts | 243° |
| 2026-04-17 13:14 | 51.09424 | -0.49666 | 6752 ft | 252 kts | 243° |
| 2026-04-17 13:14 | 51.08651 | -0.52104 | 6727 ft | 242 kts | 243° |
| 2026-04-17 13:15 | 51.07903 | -0.54482 | 6687 ft | 243 kts | 243° |
| 2026-04-17 13:15 | 51.07121 | -0.56981 | 6663 ft | 259 kts | 243° |
| 2026-04-17 13:15 | 51.06304 | -0.59607 | 6499 ft | 268 kts | 244° |
| 2026-04-17 13:15 | 51.05535 | -0.62294 | 6446 ft | 271 kts | 248° |
| 2026-04-17 13:16 | 51.04990 | -0.65278 | 6120 ft | 285 kts | 256° |
| 2026-04-17 13:16 | 51.04565 | -0.68339 | 6176 ft | 283 kts | 256° |
| 2026-04-17 13:16 | 51.04151 | -0.71397 | 6147 ft | 284 kts | 257° |
| 2026-04-17 13:16 | 51.03743 | -0.74426 | 6338 ft | 274 kts | 257° |
| 2026-04-17 13:17 | 51.03393 | -0.77314 | 6575 ft | 260 kts | 258° |
| 2026-04-17 13:17 | 51.03048 | -0.80086 | 6820 ft | 259 kts | 257° |
| 2026-04-17 13:17 | 51.02679 | -0.82918 | 7068 ft | 259 kts | 257° |
| 2026-04-17 13:17 | 51.02312 | -0.85665 | 7290 ft | 257 kts | 257° |
| 2026-04-17 13:18 | 51.01989 | -0.88455 | 7545 ft | 259 kts | 266° |
| 2026-04-17 13:18 | 51.02332 | -0.91267 | 7793 ft | 265 kts | 291° |
| 2026-04-17 13:18 | 51.03389 | -0.93679 | 8048 ft | 272 kts | 314° |
| 2026-04-17 13:18 | 51.04921 | -0.95481 | 8320 ft | 275 kts | 322° |
| 2026-04-17 13:19 | 51.06535 | -0.97137 | 8575 ft | 278 kts | 324° |
| 2026-04-17 13:19 | 51.08202 | -0.98720 | 8823 ft | 280 kts | 325° |
| 2026-04-17 13:19 | 51.09887 | -1.00293 | 9085 ft | 281 kts | 325° |
| 2026-04-17 13:19 | 51.11576 | -1.01877 | 9345 ft | 282 kts | 325° |
| 2026-04-17 13:20 | 51.13269 | -1.03474 | 9613 ft | 284 kts | 324° |
| 2026-04-17 13:20 | 51.14971 | -1.05089 | 9878 ft | 286 kts | 324° |
| 2026-04-17 13:20 | 51.16680 | -1.06719 | 10140 ft | 287 kts | 324° |
| 2026-04-17 13:20 | 51.18422 | -1.08388 | 10407 ft | 300 kts | 324° |
| 2026-04-17 13:21 | 51.20266 | -1.10164 | 10680 ft | 319 kts | 324° |
| 2026-04-17 13:21 | 51.22213 | -1.12039 | 10954 ft | 336 kts | 324° |
| 2026-04-17 13:21 | 51.24268 | -1.14017 | 11223 ft | 353 kts | 324° |
| 2026-04-17 13:21 | 51.26415 | -1.16082 | 11495 ft | 368 kts | 324° |
| 2026-04-17 13:22 | 51.28643 | -1.18226 | 11757 ft | 378 kts | 324° |
| 2026-04-17 13:22 | 51.30898 | -1.20397 | 11999 ft | 378 kts | 324° |
| 2026-04-17 13:22 | 51.33153 | -1.22564 | 12251 ft | 380 kts | 325° |
| 2026-04-17 13:22 | 51.35505 | -1.24402 | 12498 ft | 386 kts | 334° |
| 2026-04-17 13:23 | 51.38073 | -1.25935 | 12764 ft | 389 kts | 335° |
| 2026-04-17 13:23 | 51.40621 | -1.27405 | 13010 ft | 390 kts | 335° |
| 2026-04-17 13:23 | 51.43176 | -1.28895 | 13274 ft | 391 kts | 335° |
| 2026-04-17 13:23 | 51.45726 | -1.30412 | 13533 ft | 392 kts | 335° |
| 2026-04-17 13:24 | 51.48287 | -1.31959 | 13808 ft | 393 kts | 334° |
| 2026-04-17 13:24 | 51.50850 | -1.33517 | 14060 ft | 395 kts | 334° |
| 2026-04-17 13:24 | 51.53395 | -1.35062 | 14337 ft | 397 kts | 334° |
| 2026-04-17 13:24 | 51.55993 | -1.36622 | 14553 ft | 401 kts | 334° |
| 2026-04-17 13:25 | 51.58562 | -1.38337 | 14771 ft | 396 kts | 326° |
| 2026-04-17 13:25 | 51.60751 | -1.40929 | 15001 ft | 387 kts | 310° |
| 2026-04-17 13:25 | 51.62443 | -1.44217 | 15249 ft | 378 kts | 296° |
| 2026-04-17 13:25 | 51.63681 | -1.47917 | 15519 ft | 375 kts | 292° |
| 2026-04-17 13:26 | 51.64871 | -1.51664 | 15751 ft | 376 kts | 292° |
| 2026-04-17 13:26 | 51.66077 | -1.55421 | 16002 ft | 378 kts | 292° |
| 2026-04-17 13:26 | 51.67300 | -1.59169 | 16269 ft | 379 kts | 292° |
| 2026-04-17 13:26 | 51.68535 | -1.62929 | 16528 ft | 380 kts | 292° |
| 2026-04-17 13:27 | 51.69710 | -1.66745 | 16787 ft | 378 kts | 287° |
| 2026-04-17 13:27 | 51.70524 | -1.70752 | 17053 ft | 375 kts | 278° |
| 2026-04-17 13:27 | 51.70916 | -1.74876 | 17331 ft | 371 kts | 271° |
| 2026-04-17 13:27 | 51.71182 | -1.79027 | 17617 ft | 373 kts | 271° |
| 2026-04-17 13:28 | 51.71462 | -1.83206 | 17893 ft | 376 kts | 271° |
| 2026-04-17 13:28 | 51.71871 | -1.87389 | 18161 ft | 381 kts | 277° |
| 2026-04-17 13:28 | 51.72470 | -1.91556 | 18407 ft | 381 kts | 278° |
| 2026-04-17 13:28 | 51.73084 | -1.95710 | 18642 ft | 381 kts | 278° |
| 2026-04-17 13:29 | 51.73700 | -1.99862 | 18882 ft | 380 kts | 278° |
| 2026-04-17 13:29 | 51.74309 | -2.04004 | 19112 ft | 380 kts | 277° |
| 2026-04-17 13:29 | 51.74914 | -2.08155 | 19339 ft | 380 kts | 277° |
| 2026-04-17 13:29 | 51.75514 | -2.12307 | 19592 ft | 380 kts | 277° |
| 2026-04-17 13:30 | 51.76113 | -2.16487 | 19849 ft | 384 kts | 277° |
| 2026-04-17 13:30 | 51.76716 | -2.20720 | 20102 ft | 390 kts | 277° |
| 2026-04-17 13:30 | 51.77325 | -2.25002 | 20355 ft | 392 kts | 277° |
| 2026-04-17 13:30 | 51.77935 | -2.29297 | 20582 ft | 392 kts | 277° |
| 2026-04-17 13:31 | 51.78543 | -2.33589 | 20836 ft | 392 kts | 277° |
| 2026-04-17 13:31 | 51.79151 | -2.37885 | 21091 ft | 392 kts | 277° |
| 2026-04-17 13:31 | 51.79756 | -2.42183 | 21365 ft | 392 kts | 277° |
| 2026-04-17 13:31 | 51.80358 | -2.46478 | 21620 ft | 393 kts | 276° |
| 2026-04-17 13:32 | 51.80963 | -2.50802 | 21902 ft | 394 kts | 276° |
| 2026-04-17 13:32 | 51.81566 | -2.55131 | 22146 ft | 396 kts | 276° |
| 2026-04-17 13:32 | 51.82171 | -2.59477 | 22401 ft | 396 kts | 276° |
| 2026-04-17 13:32 | 51.82773 | -2.63823 | 22670 ft | 397 kts | 276° |
| 2026-04-17 13:33 | 51.83374 | -2.68164 | 22931 ft | 394 kts | 276° |
| 2026-04-17 13:33 | 51.83971 | -2.72481 | 23204 ft | 393 kts | 276° |
| 2026-04-17 13:33 | 51.84565 | -2.76809 | 23486 ft | 396 kts | 276° |
| 2026-04-17 13:33 | 51.85162 | -2.81175 | 23748 ft | 399 kts | 276° |
| 2026-04-17 13:34 | 51.85761 | -2.85573 | 23986 ft | 402 kts | 276° |
| 2026-04-17 13:34 | 51.86363 | -2.89997 | 24223 ft | 404 kts | 276° |
| 2026-04-17 13:34 | 51.86968 | -2.94450 | 24456 ft | 406 kts | 275° |
| 2026-04-17 13:34 | 51.87572 | -2.98910 | 24695 ft | 406 kts | 275° |
| 2026-04-17 13:35 | 51.88177 | -3.03379 | 24930 ft | 406 kts | 275° |
| 2026-04-17 13:35 | 51.88779 | -3.07848 | 25190 ft | 406 kts | 275° |
| 2026-04-17 13:35 | 51.89378 | -3.12307 | 25420 ft | 406 kts | 275° |
| 2026-04-17 13:35 | 51.89978 | -3.16765 | 25694 ft | 405 kts | 275° |
| 2026-04-17 13:36 | 51.90573 | -3.21228 | 25934 ft | 406 kts | 275° |
| 2026-04-17 13:36 | 51.91164 | -3.25688 | 26194 ft | 406 kts | 275° |
| 2026-04-17 13:36 | 51.91755 | -3.30158 | 26443 ft | 406 kts | 274° |
| 2026-04-17 13:36 | 51.92345 | -3.34630 | 26692 ft | 406 kts | 274° |
| 2026-04-17 13:37 | 51.92935 | -3.39101 | 26957 ft | 406 kts | 274° |
| 2026-04-17 13:37 | 51.93524 | -3.43585 | 27235 ft | 407 kts | 274° |
| 2026-04-17 13:37 | 51.94130 | -3.48076 | 27497 ft | 411 kts | 277° |
| 2026-04-17 13:37 | 51.95118 | -3.52489 | 27747 ft | 423 kts | 286° |
| 2026-04-17 13:38 | 51.96494 | -3.56632 | 27987 ft | 411 kts | 292° |
| 2026-04-17 13:38 | 51.98174 | -3.60402 | 28259 ft | 419 kts | 301° |
| 2026-04-17 13:38 | 52.00179 | -3.63889 | 28553 ft | 425 kts | 303° |
| 2026-04-17 13:38 | 52.02246 | -3.67348 | 28839 ft | 428 kts | 303° |
| 2026-04-17 13:39 | 52.04333 | -3.70814 | 29119 ft | 431 kts | 303° |
| 2026-04-17 13:39 | 52.06429 | -3.74304 | 29404 ft | 433 kts | 303° |
| 2026-04-17 13:39 | 52.08526 | -3.77819 | 29695 ft | 434 kts | 303° |
| 2026-04-17 13:39 | 52.10625 | -3.81363 | 29984 ft | 436 kts | 302° |
| 2026-04-17 13:40 | 52.12724 | -3.84921 | 30247 ft | 436 kts | 302° |
| 2026-04-17 13:40 | 52.14789 | -3.88433 | 30487 ft | 435 kts | 302° |
| 2026-04-17 13:40 | 52.16901 | -3.92033 | 30733 ft | 434 kts | 302° |
| 2026-04-17 13:40 | 52.18952 | -3.95536 | 30980 ft | 430 kts | 302° |
| 2026-04-17 13:41 | 52.20982 | -3.98987 | 31194 ft | 412 kts | 301° |
| 2026-04-17 13:41 | 52.22918 | -4.02268 | 31406 ft | 391 kts | 300° |
| 2026-04-17 13:41 | 52.24753 | -4.05389 | 31621 ft | 372 kts | 300° |
| 2026-04-17 13:41 | 52.26519 | -4.08407 | 31796 ft | 353 kts | 298° |
| 2026-04-17 13:42 | 52.29824 | -4.14139 | 31992 ft | 348 kts | 298° |
| 2026-04-17 13:42 | 52.33166 | -4.19984 | 32069 ft | 361 kts | 298° |
| 2026-04-17 13:43 | 52.36674 | -4.26075 | 32073 ft | 375 kts | 299° |
| 2026-04-17 13:43 | 52.40285 | -4.32311 | 32064 ft | 378 kts | 299° |
| 2026-04-17 13:44 | 52.43889 | -4.38566 | 32058 ft | 376 kts | 299° |
| 2026-04-17 13:44 | 52.47418 | -4.44707 | 32044 ft | 366 kts | 298° |
| 2026-04-17 13:45 | 52.50904 | -4.50830 | 32063 ft | 369 kts | 298° |
| 2026-04-17 13:45 | 52.54421 | -4.57019 | 32061 ft | 372 kts | 299° |
| 2026-04-17 13:46 | 52.57963 | -4.63255 | 32049 ft | 374 kts | 299° |
| 2026-04-17 13:46 | 52.61521 | -4.69528 | 32049 ft | 375 kts | 299° |
| 2026-04-17 13:47 | 52.65074 | -4.75807 | 32042 ft | 374 kts | 299° |
| 2026-04-17 13:47 | 52.68607 | -4.82060 | 32021 ft | 371 kts | 299° |
| 2026-04-17 13:48 | 52.72109 | -4.88269 | 32018 ft | 368 kts | 299° |
| 2026-04-17 13:48 | 52.75554 | -4.94395 | 32024 ft | 365 kts | 299° |
| 2026-04-17 13:49 | 52.79001 | -5.00543 | 32017 ft | 364 kts | 299° |
| 2026-04-17 13:49 | 52.82436 | -5.06692 | 32021 ft | 364 kts | 299° |
| 2026-04-17 13:50 | 52.85876 | -5.12867 | 32016 ft | 365 kts | 299° |
| 2026-04-17 13:50 | 52.89324 | -5.19071 | 32013 ft | 367 kts | 300° |
| 2026-04-17 13:51 | 52.92786 | -5.25313 | 32000 ft | 369 kts | 300° |
| 2026-04-17 13:51 | 52.96261 | -5.31593 | 32003 ft | 370 kts | 300° |
| 2026-04-17 13:52 | 52.99182 | -5.36884 | 31985 ft | 371 kts | 300° |
| 2026-04-17 13:52 | 53.02649 | -5.43179 | 31977 ft | 372 kts | 300° |